createdAt,value
2024-01-21T00:00:01.601Z,17.08
2024-01-21T00:00:59.530Z,18.02
2024-01-21T00:01:57.668Z,17.58
2024-01-21T00:02:55.616Z,17.30
2024-01-21T00:03:53.549Z,17.83
2024-01-21T00:04:51.537Z,18.37
2024-01-21T00:05:49.764Z,18.10
2024-01-21T00:06:47.774Z,15.90
2024-01-21T00:07:47.161Z,17.92
2024-01-21T00:08:46.399Z,18.73
2024-01-21T00:09:44.361Z,17.40
2024-01-21T00:10:42.217Z,17.25
2024-01-21T00:11:40.806Z,17.95
2024-01-21T00:12:39.582Z,17.17
2024-01-21T00:13:38.161Z,17.10
2024-01-21T00:14:38.026Z,16.37
2024-01-21T00:15:36.057Z,17.65
2024-01-21T00:16:34.482Z,19.30
2024-01-21T00:17:32.506Z,18.73
2024-01-21T00:18:30.097Z,18.05
2024-01-21T00:19:27.803Z,18.05
2024-01-21T00:20:25.241Z,17.85
2024-01-21T00:21:22.917Z,18.50
2024-01-21T00:22:20.399Z,18.45
2024-01-21T00:23:18.429Z,19.08
2024-01-21T00:24:16.032Z,18.42
2024-01-21T00:25:13.640Z,18.35
2024-01-21T00:26:11.201Z,17.67
2024-01-21T00:27:08.682Z,18.62
2024-01-21T00:28:06.338Z,18.55
2024-01-21T00:29:04.292Z,17.20
2024-01-21T00:30:04.229Z,18.58
2024-01-21T00:31:04.741Z,15.43
2024-01-21T00:32:02.814Z,17.12
2024-01-21T00:33:00.277Z,17.55
2024-01-21T00:33:57.760Z,19.05
2024-01-21T00:34:55.950Z,18.58
2024-01-21T00:35:53.667Z,17.27
2024-01-21T00:36:51.599Z,16.45
2024-01-21T00:37:49.032Z,16.95
2024-01-21T00:38:46.752Z,18.90
2024-01-21T00:39:44.329Z,16.37
2024-01-21T00:40:42.506Z,15.88
2024-01-21T00:41:42.774Z,18.30
2024-01-21T00:42:42.192Z,17.37
2024-01-21T00:43:39.697Z,17.23
2024-01-21T00:44:38.726Z,17.25
2024-01-21T00:45:36.377Z,17.80
2024-01-21T00:46:34.020Z,17.62
2024-01-21T00:47:31.990Z,17.20
2024-01-21T00:48:29.728Z,16.98
2024-01-21T00:49:27.177Z,17.58
2024-01-21T00:50:24.846Z,16.67
2024-01-21T00:51:25.032Z,17.02
2024-01-21T00:52:22.389Z,17.00
2024-01-21T00:53:19.953Z,17.15
2024-01-21T00:54:17.480Z,18.17
2024-01-21T00:55:14.735Z,17.12
2024-01-21T00:56:12.028Z,17.73
2024-01-21T00:57:10.811Z,17.00
2024-01-21T00:58:10.317Z,17.30
2024-01-21T00:59:07.846Z,16.98
2024-01-21T01:00:06.112Z,17.80
2024-01-21T01:01:03.485Z,17.52
2024-01-21T01:02:01.079Z,16.87
2024-01-21T01:02:58.517Z,17.08
2024-01-21T01:03:56.563Z,17.12
2024-01-21T01:04:54.026Z,18.00
2024-01-21T01:05:52.209Z,16.37
2024-01-21T01:06:49.328Z,17.42
2024-01-21T01:07:46.953Z,17.45
2024-01-21T01:08:44.387Z,18.87
2024-01-21T01:09:43.616Z,17.37
2024-01-21T01:10:41.509Z,15.82
2024-01-21T01:11:39.452Z,18.05
2024-01-21T01:12:37.142Z,17.37
2024-01-21T01:13:37.841Z,17.80
2024-01-21T01:14:35.745Z,16.85
2024-01-21T01:15:33.260Z,16.35
2024-01-21T01:16:31.416Z,18.00
2024-01-21T01:17:29.114Z,17.17
2024-01-21T01:18:26.914Z,17.05
2024-01-21T01:19:24.856Z,17.35
2024-01-21T01:20:22.636Z,18.00
2024-01-21T01:21:20.239Z,17.40
2024-01-21T01:22:17.760Z,16.55
2024-01-21T01:23:16.203Z,17.40
2024-01-21T01:24:13.401Z,17.27
2024-01-21T01:25:11.450Z,18.65
2024-01-21T01:26:09.217Z,17.48
2024-01-21T01:27:06.594Z,17.27
2024-01-21T01:28:04.422Z,17.05
2024-01-21T01:29:02.581Z,17.60
2024-01-21T01:30:00.495Z,17.02
2024-01-21T01:30:58.745Z,17.95
2024-01-21T01:31:56.683Z,18.12
2024-01-21T01:32:54.214Z,17.10
2024-01-21T01:33:52.781Z,17.67
2024-01-21T01:34:56.832Z,16.50
2024-01-21T01:35:54.957Z,16.55
2024-01-21T01:36:52.758Z,17.70
2024-01-21T01:37:51.868Z,17.33
2024-01-21T01:38:49.472Z,17.27
2024-01-21T01:39:47.361Z,16.62
2024-01-21T01:40:45.457Z,17.58
2024-01-21T01:41:43.745Z,18.17
2024-01-21T01:42:41.740Z,18.27
2024-01-21T01:43:39.350Z,17.83
2024-01-21T01:44:39.915Z,17.75
2024-01-21T01:45:39.305Z,16.67
2024-01-21T01:46:38.657Z,17.62
2024-01-21T01:47:36.827Z,17.67
2024-01-21T01:48:37.812Z,17.12
2024-01-21T01:49:35.311Z,17.40
2024-01-21T01:50:34.235Z,19.30
2024-01-21T01:51:34.565Z,17.52
2024-01-21T01:52:31.993Z,16.40
2024-01-21T01:53:30.722Z,16.62
2024-01-21T01:54:31.186Z,17.60
2024-01-21T01:55:29.255Z,17.17
2024-01-21T01:56:26.937Z,16.75
2024-01-21T01:57:25.318Z,16.23
2024-01-21T01:58:23.451Z,17.30
2024-01-21T01:59:22.282Z,17.23
2024-01-21T02:00:20.323Z,16.45
2024-01-21T02:01:18.193Z,17.67
2024-01-21T02:02:16.224Z,17.20
2024-01-21T02:03:14.656Z,17.17
2024-01-21T02:04:13.532Z,18.00
2024-01-21T02:05:11.562Z,18.12
2024-01-21T02:06:08.819Z,17.37
2024-01-21T02:07:06.435Z,17.00
2024-01-21T02:08:04.271Z,16.95
2024-01-21T02:09:01.518Z,17.12
2024-01-21T02:09:58.754Z,17.52
2024-01-21T02:10:56.373Z,16.70
2024-01-21T02:11:53.750Z,18.05
2024-01-21T02:12:52.978Z,17.08
2024-01-21T02:13:53.391Z,16.02
2024-01-21T02:14:51.661Z,17.08
2024-01-21T02:15:49.209Z,17.00
2024-01-21T02:16:46.797Z,18.15
2024-01-21T02:17:44.273Z,16.05
2024-01-21T02:18:48.019Z,17.20
2024-01-21T02:19:46.032Z,17.70
2024-01-21T02:20:43.472Z,16.67
2024-01-21T02:21:41.349Z,16.33
2024-01-21T02:22:42.826Z,17.73
2024-01-21T02:23:40.695Z,16.87
2024-01-21T02:24:38.849Z,16.40
2024-01-21T02:25:36.732Z,17.55
2024-01-21T02:26:34.929Z,17.75
2024-01-21T02:27:32.478Z,16.75
2024-01-21T02:28:30.164Z,17.77
2024-01-21T02:29:27.827Z,17.35
2024-01-21T02:30:26.928Z,17.45
2024-01-21T02:31:26.142Z,17.52
2024-01-21T02:32:24.083Z,17.35
2024-01-21T02:33:22.151Z,17.40
2024-01-21T02:34:26.776Z,17.48
2024-01-21T02:35:24.593Z,17.95
2024-01-21T02:36:22.375Z,16.75
2024-01-21T02:37:19.915Z,17.15
2024-01-21T02:38:17.265Z,18.40
2024-01-21T02:39:14.685Z,16.67
2024-01-21T02:40:12.469Z,16.87
2024-01-21T02:41:10.004Z,18.92
2024-01-21T02:42:08.212Z,16.98
2024-01-21T02:43:08.586Z,16.80
2024-01-21T02:44:06.999Z,16.30
2024-01-21T02:45:05.150Z,16.12
2024-01-21T02:46:04.358Z,17.20
2024-01-21T02:47:01.660Z,17.23
2024-01-21T02:47:59.191Z,15.68
2024-01-21T02:48:56.603Z,17.08
2024-01-21T02:49:54.159Z,16.55
2024-01-21T02:50:51.550Z,16.60
2024-01-21T02:51:49.056Z,16.87
2024-01-21T02:52:46.714Z,16.27
2024-01-21T02:53:44.292Z,17.52
2024-01-21T02:54:41.774Z,17.48
2024-01-21T02:55:40.372Z,16.25
2024-01-21T02:56:37.701Z,17.23
2024-01-21T02:57:35.026Z,16.35
2024-01-21T02:58:32.227Z,17.65
2024-01-21T02:59:29.946Z,17.30
2024-01-21T03:00:28.718Z,17.27
2024-01-21T03:01:26.348Z,16.55
2024-01-21T03:02:24.064Z,17.40
2024-01-21T03:03:21.409Z,16.92
2024-01-21T03:04:18.545Z,16.58
2024-01-21T03:05:15.896Z,16.20
2024-01-21T03:06:13.809Z,17.17
2024-01-21T03:07:11.107Z,15.85
2024-01-21T03:08:08.176Z,16.50
2024-01-21T03:09:05.392Z,15.75
2024-01-21T03:10:02.549Z,15.48
2024-01-21T03:10:59.825Z,16.65
2024-01-21T03:11:57.895Z,15.43
2024-01-21T03:12:55.292Z,16.92
2024-01-21T03:13:52.601Z,16.58
2024-01-21T03:14:49.695Z,15.70
2024-01-21T03:15:47.058Z,16.30
2024-01-21T03:16:44.245Z,15.90
2024-01-21T03:17:41.234Z,15.80
2024-01-21T03:18:40.518Z,15.75
2024-01-21T03:19:37.912Z,16.35
2024-01-21T03:20:35.154Z,16.52
2024-01-21T03:21:32.349Z,14.87
2024-01-21T03:22:29.908Z,15.88
2024-01-21T03:23:27.180Z,16.00
2024-01-21T03:24:24.477Z,15.95
2024-01-21T03:25:21.805Z,16.85
2024-01-21T03:26:18.940Z,16.08
2024-01-21T03:27:16.020Z,16.83
2024-01-21T03:28:14.676Z,16.83
2024-01-21T03:29:11.900Z,15.60
2024-01-21T03:30:09.578Z,15.38
2024-01-21T03:31:06.905Z,16.87
2024-01-21T03:32:05.378Z,16.02
2024-01-21T03:33:02.824Z,16.02
2024-01-21T03:34:00.619Z,15.93
2024-01-21T03:34:57.911Z,15.85
2024-01-21T03:35:55.395Z,16.52
2024-01-21T03:36:52.699Z,15.77
2024-01-21T03:37:51.479Z,16.12
2024-01-21T03:38:52.201Z,15.07
2024-01-21T03:40:46.914Z,14.43
2024-01-21T03:41:44.136Z,15.82
2024-01-21T03:42:41.412Z,14.95
2024-01-21T03:43:38.604Z,15.43
2024-01-21T03:44:35.944Z,14.85
2024-01-21T03:45:33.480Z,15.18
2024-01-21T03:46:30.634Z,15.40
2024-01-21T03:47:27.980Z,15.50
2024-01-21T03:48:25.257Z,14.70
2024-01-21T03:49:22.736Z,16.58
2024-01-21T03:50:21.886Z,16.00
2024-01-21T03:51:19.386Z,16.10
2024-01-21T03:52:16.576Z,15.23
2024-01-21T03:53:13.871Z,16.70
2024-01-21T03:54:11.095Z,15.93
2024-01-21T03:55:08.606Z,15.60
2024-01-21T03:56:07.041Z,15.27
2024-01-21T03:57:04.560Z,16.20
2024-01-21T03:58:02.080Z,15.88
2024-01-21T03:58:59.442Z,15.43
2024-01-21T03:59:56.703Z,14.87
2024-01-21T04:00:54.154Z,15.35
2024-01-21T04:01:51.543Z,15.65
2024-01-21T04:02:48.711Z,15.05
2024-01-21T04:03:46.042Z,15.18
2024-01-21T04:04:46.547Z,15.77
2024-01-21T04:05:43.913Z,15.75
2024-01-21T04:06:44.925Z,15.88
2024-01-21T04:07:42.274Z,15.90
2024-01-21T04:08:39.503Z,16.35
2024-01-21T04:09:36.618Z,16.27
2024-01-21T04:10:34.034Z,15.38
2024-01-21T04:11:32.052Z,15.68
2024-01-21T04:12:29.640Z,15.32
2024-01-21T04:13:26.965Z,16.20
2024-01-21T04:14:24.169Z,16.65
2024-01-21T04:15:21.376Z,15.35
2024-01-21T04:16:18.680Z,16.33
2024-01-21T04:17:15.758Z,15.18
2024-01-21T04:18:13.144Z,16.90
2024-01-21T04:19:11.336Z,15.05
2024-01-21T04:20:10.512Z,16.02
2024-01-21T04:21:07.685Z,16.12
2024-01-21T04:22:05.158Z,15.90
2024-01-21T04:23:02.193Z,16.23
2024-01-21T04:24:00.195Z,16.52
2024-01-21T04:24:57.407Z,16.00
2024-01-21T04:25:56.452Z,15.25
2024-01-21T04:26:54.411Z,15.93
2024-01-21T04:27:51.634Z,16.37
2024-01-21T04:28:48.813Z,16.52
2024-01-21T04:29:46.201Z,15.52
2024-01-21T04:30:43.261Z,16.75
2024-01-21T04:31:45.967Z,15.68
2024-01-21T04:32:43.390Z,16.52
2024-01-21T04:33:40.568Z,15.40
2024-01-21T04:34:38.139Z,16.23
2024-01-21T04:35:36.783Z,16.42
2024-01-21T04:36:34.066Z,15.85
2024-01-21T04:37:31.646Z,17.80
2024-01-21T04:38:29.008Z,16.20
2024-01-21T04:39:26.429Z,15.60
2024-01-21T04:40:23.678Z,15.63
2024-01-21T04:41:20.973Z,16.23
2024-01-21T04:42:18.626Z,15.73
2024-01-21T04:43:15.839Z,16.20
2024-01-21T04:44:13.002Z,15.75
2024-01-21T04:45:12.060Z,15.32
2024-01-21T04:46:09.592Z,15.57
2024-01-21T04:47:06.721Z,16.17
2024-01-21T04:48:04.964Z,15.13
2024-01-21T04:49:02.323Z,15.88
2024-01-21T04:49:59.659Z,15.27
2024-01-21T04:50:56.900Z,17.05
2024-01-21T04:51:54.251Z,16.80
2024-01-21T04:52:51.600Z,16.60
2024-01-21T04:53:48.676Z,16.20
2024-01-21T04:54:45.850Z,15.80
2024-01-21T04:55:43.000Z,16.05
2024-01-21T04:56:40.608Z,15.00
2024-01-21T04:57:38.244Z,16.75
2024-01-21T04:58:35.399Z,16.00
2024-01-21T04:59:32.722Z,17.12
2024-01-21T05:00:29.901Z,16.40
2024-01-21T05:01:28.493Z,15.82
2024-01-21T05:02:25.654Z,16.10
2024-01-21T05:03:23.185Z,15.73
2024-01-21T05:04:20.637Z,15.57
2024-01-21T05:05:17.900Z,15.48
2024-01-21T05:06:15.099Z,14.82
2024-01-21T05:07:12.413Z,16.58
2024-01-21T05:08:09.624Z,16.15
2024-01-21T05:09:06.970Z,15.93
2024-01-21T05:10:04.486Z,15.07
2024-01-21T05:11:01.702Z,16.05
2024-01-21T05:11:59.331Z,16.17
2024-01-21T05:12:56.572Z,15.65
2024-01-21T05:13:53.738Z,15.85
2024-01-21T05:14:51.366Z,15.85
2024-01-21T05:15:48.817Z,15.85
2024-01-21T05:16:45.977Z,17.17
2024-01-21T05:17:43.298Z,15.48
2024-01-21T05:18:41.129Z,16.83
2024-01-21T05:19:38.925Z,15.98
2024-01-21T05:20:36.232Z,15.98
2024-01-21T05:21:33.680Z,14.80
2024-01-21T05:22:31.109Z,15.88
2024-01-21T05:23:28.272Z,15.35
2024-01-21T05:24:25.416Z,15.75
2024-01-21T05:25:22.479Z,15.98
2024-01-21T05:26:19.940Z,14.95
2024-01-21T05:27:17.564Z,15.82
2024-01-21T05:28:14.884Z,15.63
2024-01-21T05:29:12.946Z,15.85
2024-01-21T05:30:10.206Z,16.27
2024-01-21T05:31:08.032Z,15.40
2024-01-21T05:32:05.738Z,14.87
2024-01-21T05:33:03.053Z,15.70
2024-01-21T05:34:00.680Z,15.43
2024-01-21T05:34:57.911Z,16.77
2024-01-21T05:35:54.944Z,15.57
2024-01-21T05:36:52.533Z,16.12
2024-01-21T05:37:50.411Z,15.48
2024-01-21T05:38:47.764Z,14.48
2024-01-21T05:39:45.001Z,15.18
2024-01-21T05:40:42.212Z,15.68
2024-01-21T05:41:39.369Z,14.52
2024-01-21T05:42:36.626Z,14.75
2024-01-21T05:43:33.748Z,15.10
2024-01-21T05:44:31.091Z,14.82
2024-01-21T05:45:28.835Z,14.45
2024-01-21T05:46:26.088Z,14.52
2024-01-21T05:47:23.199Z,15.07
2024-01-21T05:48:20.497Z,15.60
2024-01-21T05:49:17.894Z,14.93
2024-01-21T05:50:15.196Z,14.68
2024-01-21T05:51:12.407Z,14.35
2024-01-21T05:52:09.549Z,14.40
2024-01-21T05:53:08.178Z,14.10
2024-01-21T05:54:05.452Z,14.93
2024-01-21T05:55:02.648Z,14.82
2024-01-21T05:55:59.983Z,14.15
2024-01-21T05:56:57.190Z,15.02
2024-01-21T05:57:54.402Z,14.57
2024-01-21T05:58:51.822Z,14.25
2024-01-21T05:59:51.325Z,14.55
2024-01-21T06:00:48.667Z,14.20
2024-01-21T06:01:49.314Z,14.70
2024-01-21T06:02:46.847Z,14.27
2024-01-21T06:03:44.180Z,14.15
2024-01-21T06:04:41.931Z,12.82
2024-01-21T06:05:38.916Z,13.50
2024-01-21T06:06:36.084Z,13.52
2024-01-21T06:07:33.184Z,14.57
2024-01-21T06:08:30.435Z,14.18
2024-01-21T06:09:27.603Z,13.57
2024-01-21T06:10:24.719Z,14.38
2024-01-21T06:11:21.875Z,14.52
2024-01-21T06:12:19.069Z,14.23
2024-01-21T06:13:16.127Z,14.52
2024-01-21T06:14:13.448Z,13.48
2024-01-21T06:15:11.515Z,14.13
2024-01-21T06:16:09.118Z,13.32
2024-01-21T06:17:06.359Z,14.02
2024-01-21T06:18:04.238Z,14.68
2024-01-21T06:19:01.690Z,14.15
2024-01-21T06:19:59.251Z,14.57
2024-01-21T06:20:56.530Z,13.93
2024-01-21T06:21:53.742Z,14.23
2024-01-21T06:22:50.900Z,13.27
2024-01-21T06:23:48.203Z,14.13
2024-01-21T06:24:45.419Z,13.90
2024-01-21T06:25:42.524Z,13.82
2024-01-21T06:26:41.998Z,12.40
2024-01-21T06:27:39.303Z,13.60
2024-01-21T06:28:36.382Z,13.65
2024-01-21T06:29:33.623Z,13.43
2024-01-21T06:30:31.245Z,12.80
2024-01-21T06:31:28.463Z,13.30
2024-01-21T06:32:25.656Z,13.10
2024-01-21T06:33:23.082Z,12.90
2024-01-21T06:34:20.366Z,13.07
2024-01-21T06:35:17.647Z,12.90
2024-01-21T06:36:15.239Z,13.88
2024-01-21T06:37:12.539Z,13.70
2024-01-21T06:38:09.727Z,13.13
2024-01-21T06:39:08.613Z,14.10
2024-01-21T06:40:07.159Z,13.98
2024-01-21T06:41:04.479Z,14.75
2024-01-21T06:42:03.120Z,13.52
2024-01-21T06:43:00.305Z,13.02
2024-01-21T06:43:57.549Z,13.55
2024-01-21T06:44:54.660Z,13.98
2024-01-21T06:45:51.715Z,14.02
2024-01-21T06:46:48.988Z,13.30
2024-01-21T06:47:46.275Z,14.15
2024-01-21T06:48:43.757Z,14.07
2024-01-21T06:49:41.195Z,13.80
2024-01-21T06:50:38.759Z,13.00
2024-01-21T06:51:44.793Z,12.93
2024-01-21T06:52:42.350Z,12.73
2024-01-21T06:53:39.643Z,13.48
2024-01-21T06:54:36.816Z,13.00
2024-01-21T06:55:34.331Z,13.38
2024-01-21T06:56:31.565Z,13.85
2024-01-21T06:57:28.812Z,14.23
2024-01-21T06:58:25.859Z,13.10
2024-01-21T06:59:22.927Z,13.93
2024-01-21T07:00:20.673Z,13.52
2024-01-21T07:01:19.582Z,12.93
2024-01-21T07:02:16.919Z,13.30
2024-01-21T07:04:11.738Z,12.77
2024-01-21T07:05:09.913Z,14.27
2024-01-21T07:06:10.563Z,13.50
2024-01-21T07:07:07.818Z,12.70
2024-01-21T07:08:05.411Z,13.32
2024-01-21T07:09:02.688Z,12.95
2024-01-21T07:09:59.900Z,13.85
2024-01-21T07:10:56.927Z,12.88
2024-01-21T07:11:53.926Z,13.60
2024-01-21T07:12:52.246Z,13.57
2024-01-21T07:13:49.581Z,14.02
2024-01-21T07:14:46.869Z,12.07
2024-01-21T07:15:44.189Z,12.07
2024-01-21T07:16:41.468Z,12.13
2024-01-21T07:17:40.553Z,12.88
2024-01-21T07:18:38.210Z,13.88
2024-01-21T07:19:36.030Z,13.38
2024-01-21T07:20:33.771Z,12.68
2024-01-21T07:21:31.923Z,12.70
2024-01-21T07:22:29.092Z,12.60
2024-01-21T07:23:26.465Z,13.38
2024-01-21T07:24:23.746Z,13.20
2024-01-21T07:25:20.899Z,12.68
2024-01-21T07:26:19.528Z,11.57
2024-01-21T07:27:16.909Z,12.75
2024-01-21T07:28:14.066Z,13.32
2024-01-21T07:29:11.173Z,13.10
2024-01-21T07:30:08.818Z,13.05
2024-01-21T07:31:06.084Z,12.80
2024-01-21T07:32:03.813Z,13.20
2024-01-21T07:33:03.318Z,13.88
2024-01-21T07:34:01.122Z,11.73
2024-01-21T07:34:58.822Z,12.40
2024-01-21T07:35:56.123Z,12.30
2024-01-21T07:36:53.513Z,11.65
2024-01-21T07:37:50.646Z,12.45
2024-01-21T07:38:47.783Z,12.25
2024-01-21T07:39:45.062Z,12.05
2024-01-21T07:40:42.634Z,13.05
2024-01-21T07:41:39.905Z,12.18
2024-01-21T07:42:37.028Z,11.45
2024-01-21T07:43:35.757Z,12.07
2024-01-21T07:44:36.175Z,11.75
2024-01-21T07:45:39.406Z,11.30
2024-01-21T07:46:38.253Z,11.52
2024-01-21T07:47:40.303Z,12.15
2024-01-21T07:48:42.056Z,12.20
2024-01-21T07:49:45.120Z,11.90
2024-01-21T07:52:39.444Z,11.95
2024-01-21T07:53:36.914Z,11.35
2024-01-21T07:54:33.965Z,14.40
2024-01-21T07:55:31.593Z,13.90
2024-01-21T07:56:28.817Z,13.48
2024-01-21T07:57:26.129Z,12.85
2024-01-21T07:58:23.384Z,12.75
2024-01-21T07:59:20.785Z,12.50
2024-01-21T08:00:19.320Z,13.05
2024-01-21T08:01:18.839Z,12.00
2024-01-21T08:02:16.450Z,11.38
2024-01-21T08:03:14.202Z,11.15
2024-01-21T08:04:11.683Z,11.38
2024-01-21T08:05:10.333Z,11.25
2024-01-21T08:06:11.406Z,11.73
2024-01-21T08:07:09.989Z,11.77
2024-01-21T08:08:07.541Z,11.95
2024-01-21T08:09:05.219Z,11.45
2024-01-21T08:10:02.646Z,13.05
2024-01-21T08:10:59.948Z,12.23
2024-01-21T08:11:57.545Z,11.82
2024-01-21T08:12:54.796Z,12.25
2024-01-21T08:13:52.245Z,12.55
2024-01-21T08:14:49.438Z,12.57
2024-01-21T08:15:46.754Z,12.43
2024-01-21T08:16:43.973Z,11.80
2024-01-21T08:17:41.482Z,11.82
2024-01-21T08:18:39.168Z,11.85
2024-01-21T08:19:40.060Z,12.90
2024-01-21T08:20:37.421Z,12.93
2024-01-21T08:21:34.759Z,12.55
2024-01-21T08:22:32.157Z,11.65
2024-01-21T08:23:29.616Z,12.30
2024-01-21T08:24:27.271Z,12.63
2024-01-21T08:25:24.637Z,12.70
2024-01-21T08:26:22.052Z,13.48
2024-01-21T08:27:20.327Z,14.02
2024-01-21T08:28:17.557Z,13.30
2024-01-21T08:29:14.924Z,16.33
2024-01-21T08:30:13.465Z,14.63
2024-01-21T08:31:11.209Z,15.07
2024-01-21T08:32:09.201Z,14.20
2024-01-21T08:33:06.703Z,20.70
2024-01-21T08:34:04.235Z,22.30
2024-01-21T08:35:01.897Z,18.33
2024-01-21T08:35:59.725Z,16.85
2024-01-21T08:36:57.046Z,16.62
2024-01-21T08:37:54.571Z,13.32
2024-01-21T08:38:52.805Z,14.55
2024-01-21T08:39:50.167Z,13.30
2024-01-21T08:40:47.669Z,13.02
2024-01-21T08:41:44.943Z,12.20
2024-01-21T08:42:42.804Z,11.80
2024-01-21T08:43:40.135Z,11.75
2024-01-21T08:44:37.318Z,12.20
2024-01-21T08:45:34.547Z,12.32
2024-01-21T08:46:31.964Z,13.02
2024-01-21T08:47:29.112Z,16.20
2024-01-21T08:48:26.584Z,18.25
2024-01-21T08:49:24.337Z,18.33
2024-01-21T08:50:21.512Z,17.12
2024-01-21T08:51:19.996Z,16.80
2024-01-21T08:52:17.967Z,16.87
2024-01-21T08:53:15.212Z,16.77
2024-01-21T08:54:12.598Z,17.48
2024-01-21T08:55:10.394Z,17.58
2024-01-21T08:56:07.825Z,16.55
2024-01-21T08:57:05.238Z,16.52
2024-01-21T08:58:03.629Z,16.35
2024-01-21T08:59:01.122Z,16.58
2024-01-21T08:59:58.499Z,17.83
2024-01-21T09:00:55.809Z,17.65
2024-01-21T09:01:53.349Z,20.00
2024-01-21T09:02:50.569Z,19.52
2024-01-21T09:03:47.893Z,18.80
2024-01-21T09:04:45.186Z,19.48
2024-01-21T09:05:43.500Z,19.50
2024-01-21T09:06:43.473Z,19.10
2024-01-21T09:07:40.964Z,18.83
2024-01-21T09:08:38.216Z,18.35
2024-01-21T09:09:36.531Z,20.73
2024-01-21T09:10:34.017Z,20.30
2024-01-21T09:11:31.213Z,19.98
2024-01-21T09:12:28.356Z,19.92
2024-01-21T09:13:25.460Z,20.17
2024-01-21T09:14:22.558Z,19.80
2024-01-21T09:15:23.164Z,21.77
2024-01-21T09:16:21.023Z,20.62
2024-01-21T09:17:18.775Z,21.50
2024-01-21T09:18:16.234Z,20.88
2024-01-21T09:19:14.133Z,20.00
2024-01-21T09:20:11.750Z,21.40
2024-01-21T09:21:15.689Z,20.60
2024-01-21T09:22:20.318Z,20.62
2024-01-21T09:23:17.365Z,20.73
2024-01-21T09:24:16.002Z,21.55
2024-01-21T09:25:13.276Z,21.45
2024-01-21T09:26:10.430Z,23.60
2024-01-21T09:27:07.564Z,23.40
2024-01-21T09:28:06.865Z,23.87
2024-01-21T09:29:04.828Z,28.08
2024-01-21T09:30:01.953Z,28.55
2024-01-21T09:30:59.008Z,27.95
2024-01-21T09:31:57.289Z,28.80
2024-01-21T09:32:54.756Z,31.95
2024-01-21T09:33:52.421Z,29.98
2024-01-21T09:34:49.966Z,27.62
2024-01-21T09:35:47.494Z,29.70
2024-01-21T09:36:45.785Z,29.10
2024-01-21T09:37:43.170Z,29.35
2024-01-21T09:38:40.341Z,27.80
2024-01-21T09:39:38.784Z,26.27
2024-01-21T09:40:36.041Z,26.80
2024-01-21T09:41:59.616Z,25.42
2024-01-21T09:42:56.969Z,24.15
2024-01-21T09:43:54.341Z,26.00
2024-01-21T09:44:51.460Z,27.35
2024-01-21T09:45:48.823Z,27.37
2024-01-21T09:46:55.285Z,27.17
2024-01-21T09:47:54.455Z,26.55
2024-01-21T09:48:54.070Z,25.23
2024-01-21T09:49:52.447Z,26.40
2024-01-21T09:50:50.683Z,26.17
2024-01-21T09:51:48.698Z,24.92
2024-01-21T09:52:45.957Z,22.87
2024-01-21T09:53:43.119Z,22.92
2024-01-21T09:54:40.302Z,22.15
2024-01-21T09:55:37.399Z,22.95
2024-01-21T09:56:36.113Z,22.13
2024-01-21T09:57:34.394Z,21.33
2024-01-21T09:58:33.332Z,22.58
2024-01-21T09:59:30.802Z,20.60
2024-01-21T10:00:28.219Z,20.62
2024-01-21T10:01:25.515Z,21.02
2024-01-21T10:02:24.673Z,21.67
2024-01-21T10:03:21.932Z,20.77
2024-01-21T10:04:21.653Z,20.12
2024-01-21T10:05:21.068Z,20.73
2024-01-21T10:06:19.410Z,21.20
2024-01-21T10:07:16.878Z,20.05
2024-01-21T10:08:15.359Z,22.23
2024-01-21T10:09:18.065Z,20.12
2024-01-21T10:10:16.238Z,19.92
2024-01-21T10:11:13.390Z,20.80
2024-01-21T10:12:10.488Z,19.40
2024-01-21T10:13:07.807Z,19.27
2024-01-21T10:14:04.745Z,19.75
2024-01-21T10:15:01.955Z,21.10
2024-01-21T10:15:59.882Z,21.87
2024-01-21T10:16:57.236Z,20.80
2024-01-21T10:17:54.388Z,22.35
2024-01-21T10:18:51.481Z,21.23
2024-01-21T10:19:48.599Z,20.73
2024-01-21T10:20:45.785Z,21.35
2024-01-21T10:21:43.506Z,21.37
2024-01-21T10:22:43.161Z,20.98
2024-01-21T10:23:40.282Z,21.25
2024-01-21T10:24:45.354Z,21.40
2024-01-21T10:25:45.054Z,21.33
2024-01-21T10:26:47.793Z,21.58
2024-01-21T10:27:53.848Z,21.77
2024-01-21T10:28:51.025Z,21.62
2024-01-21T10:29:48.138Z,23.10
2024-01-21T10:30:49.236Z,23.00
2024-01-21T10:31:46.419Z,22.90
2024-01-21T10:32:44.518Z,23.25
2024-01-21T10:33:46.292Z,23.65
2024-01-21T10:34:46.772Z,24.23
2024-01-21T10:35:44.164Z,25.95
2024-01-21T10:36:45.066Z,22.08
2024-01-21T10:37:42.636Z,20.08
2024-01-21T10:38:50.534Z,19.23
2024-01-21T10:39:49.903Z,19.42
2024-01-21T10:40:47.768Z,18.87
2024-01-21T10:41:45.204Z,19.25
2024-01-21T10:42:42.867Z,18.65
2024-01-21T10:43:41.653Z,19.62
2024-01-21T10:44:40.813Z,22.30
2024-01-21T10:45:37.929Z,22.98
2024-01-21T10:46:39.202Z,23.98
2024-01-21T10:47:36.930Z,21.17
2024-01-21T10:48:34.640Z,19.90
2024-01-21T10:49:33.155Z,20.48
2024-01-21T10:50:30.332Z,17.60
2024-01-21T10:51:28.797Z,21.37
2024-01-21T10:52:26.208Z,19.05
2024-01-21T10:53:25.263Z,19.25
2024-01-21T10:54:22.526Z,17.20
2024-01-21T10:55:19.767Z,19.62
2024-01-21T10:56:17.016Z,20.25
2024-01-21T10:57:15.256Z,19.15
2024-01-21T10:58:12.861Z,19.08
2024-01-21T10:59:10.970Z,20.40
2024-01-21T11:00:10.819Z,20.00
2024-01-21T11:01:08.420Z,19.05
2024-01-21T11:02:06.319Z,19.12
2024-01-21T11:03:25.961Z,18.20
2024-01-21T11:04:23.599Z,19.77
2024-01-21T11:05:20.827Z,19.15
2024-01-21T11:06:18.262Z,19.75
2024-01-21T11:07:19.336Z,20.75
2024-01-21T11:08:17.186Z,18.20
2024-01-21T11:09:17.975Z,20.23
2024-01-21T11:11:18.703Z,18.83
2024-01-21T11:12:15.880Z,22.85
2024-01-21T11:13:43.039Z,23.00
2024-01-21T11:14:40.758Z,20.58
2024-01-21T11:15:37.972Z,19.80
2024-01-21T11:16:37.232Z,17.92
2024-01-21T11:17:34.334Z,18.50
2024-01-21T11:18:31.744Z,19.00
2024-01-21T11:19:39.831Z,18.42
2024-01-21T11:20:37.323Z,19.35
2024-01-21T11:21:42.536Z,17.62
2024-01-21T11:22:39.813Z,17.12
2024-01-21T11:23:36.798Z,17.42
2024-01-21T11:24:33.897Z,18.90
2024-01-21T11:25:34.220Z,17.65
2024-01-21T11:26:37.678Z,16.95
2024-01-21T11:27:34.737Z,17.70
2024-01-21T11:28:31.808Z,18.48
2024-01-21T11:29:33.559Z,18.20
2024-01-21T11:30:31.364Z,17.90
2024-01-21T11:31:33.372Z,19.58
2024-01-21T11:32:32.371Z,19.17
2024-01-21T11:33:31.908Z,18.85
2024-01-21T11:34:31.258Z,18.92
2024-01-21T11:35:29.379Z,19.42
2024-01-21T11:36:26.438Z,20.58
2024-01-21T11:37:24.000Z,18.48
2024-01-21T11:38:21.421Z,18.50
2024-01-21T11:39:23.235Z,19.65
2024-01-21T11:40:21.399Z,18.85
2024-01-21T11:41:20.464Z,18.80
2024-01-21T11:42:17.567Z,18.77
2024-01-21T11:43:14.833Z,17.73
2024-01-21T11:44:21.259Z,18.27
2024-01-21T11:45:18.866Z,18.05
2024-01-21T11:46:16.030Z,17.98
2024-01-21T11:47:13.478Z,16.60
2024-01-21T11:48:14.098Z,16.30
2024-01-21T11:49:11.452Z,17.50
2024-01-21T11:50:08.968Z,17.85
2024-01-21T11:51:06.171Z,17.23
2024-01-21T11:52:08.693Z,17.95
2024-01-21T11:53:05.970Z,16.48
2024-01-21T11:54:03.040Z,15.60
2024-01-21T11:55:00.679Z,16.35
2024-01-21T11:55:58.042Z,15.82
2024-01-21T11:56:55.327Z,14.10
2024-01-21T11:57:52.480Z,15.02
2024-01-21T11:58:50.321Z,15.65
2024-01-21T11:59:47.563Z,15.60
2024-01-21T12:00:44.934Z,15.20
2024-01-21T12:01:42.605Z,15.88
2024-01-21T12:02:39.879Z,14.60
2024-01-21T12:03:37.067Z,15.70
2024-01-21T12:04:34.414Z,15.65
2024-01-21T12:05:31.448Z,17.55
2024-01-21T12:06:28.909Z,18.17
2024-01-21T12:07:27.231Z,18.45
2024-01-21T12:08:24.478Z,19.08
2024-01-21T12:09:23.347Z,17.05
2024-01-21T12:10:20.667Z,17.55
2024-01-21T12:11:17.850Z,16.67
2024-01-21T12:12:14.824Z,17.75
2024-01-21T12:13:11.885Z,17.42
2024-01-21T12:14:14.688Z,16.62
2024-01-21T12:15:11.733Z,15.05
2024-01-21T12:16:09.598Z,15.57
2024-01-21T12:17:06.929Z,15.05
2024-01-21T12:18:04.399Z,15.43
2024-01-21T12:19:02.417Z,15.43
2024-01-21T12:19:59.582Z,16.12
2024-01-21T12:20:56.717Z,16.30
2024-01-21T12:21:53.970Z,16.62
2024-01-21T12:22:51.523Z,18.40
2024-01-21T12:23:49.998Z,18.52
2024-01-21T12:24:47.043Z,16.50
2024-01-21T12:25:44.439Z,17.58
2024-01-21T12:26:46.365Z,18.58
2024-01-21T12:27:47.270Z,17.42
2024-01-21T12:29:05.406Z,17.40
2024-01-21T12:30:02.565Z,17.25
2024-01-21T12:31:00.352Z,16.85
2024-01-21T12:31:57.429Z,17.25
2024-01-21T12:32:59.113Z,13.13